createdAt,value
2022-11-28T00:01:35.800Z,101518.47
2022-11-28T00:04:04.781Z,101512.16
2022-11-28T00:06:32.797Z,101513.81
2022-11-28T00:09:01.437Z,101508.38
2022-11-28T00:11:29.287Z,101504.63
2022-11-28T00:13:57.122Z,101504.63
2022-11-28T00:16:25.134Z,101498.13
2022-11-28T00:18:55.210Z,101495.81
2022-11-28T00:21:23.760Z,101492.00
2022-11-28T00:23:52.153Z,101492.44
2022-11-28T00:26:25.600Z,101486.84
2022-11-28T00:28:55.596Z,101489.56
2022-11-28T00:31:26.479Z,101480.75
2022-11-28T00:33:54.450Z,101471.84
2022-11-28T00:36:23.293Z,101482.44
2022-11-28T00:38:51.780Z,101488.69
2022-11-28T00:41:28.801Z,101486.13
2022-11-28T00:43:57.390Z,101479.03
2022-11-28T00:46:25.885Z,101479.47
2022-11-28T00:48:54.309Z,101480.97
2022-11-28T00:51:25.416Z,101488.28
2022-11-28T00:53:55.156Z,101473.88
2022-11-28T00:56:29.499Z,101474.47
2022-11-28T00:58:58.186Z,101472.00
2022-11-28T01:01:35.764Z,101471.56
2022-11-28T01:04:07.204Z,101477.88
2022-11-28T01:06:38.685Z,101469.91
2022-11-28T01:09:17.266Z,101467.41
2022-11-28T01:11:46.412Z,101455.72
2022-11-28T01:14:14.187Z,101452.59
2022-11-28T01:16:42.096Z,101448.22
2022-11-28T01:19:10.255Z,101450.94
2022-11-28T01:21:38.354Z,101450.44
2022-11-28T01:24:06.521Z,101442.28
2022-11-28T01:26:34.832Z,101456.28
2022-11-28T01:29:02.736Z,101440.13
2022-11-28T01:31:31.116Z,101440.13
2022-11-28T01:33:59.482Z,101439.69
2022-11-28T01:36:28.171Z,101438.94
2022-11-28T01:38:56.031Z,101439.09
2022-11-28T01:41:26.763Z,101423.41
2022-11-28T01:44:29.916Z,101425.22
2022-11-28T01:46:58.068Z,101423.78
2022-11-28T01:49:45.525Z,101429.69
2022-11-28T01:52:17.421Z,101428.47
2022-11-28T01:54:52.834Z,101418.19
2022-11-28T01:57:24.051Z,101414.81
2022-11-28T02:00:08.030Z,101420.84
2022-11-28T02:02:53.047Z,101423.72
2022-11-28T02:05:22.702Z,101414.06
2022-11-28T02:07:51.677Z,101408.78
2022-11-28T02:10:28.691Z,101404.78
2022-11-28T02:13:22.413Z,101412.03
2022-11-28T02:15:52.953Z,101403.88
2022-11-28T02:19:01.922Z,101402.59
2022-11-28T02:21:44.121Z,101402.00
2022-11-28T02:24:30.287Z,101394.16
2022-11-28T02:27:33.638Z,101390.78
2022-11-28T02:30:16.708Z,101383.00
2022-11-28T02:32:56.303Z,101376.31
2022-11-28T02:35:38.177Z,101376.88
2022-11-28T02:38:27.116Z,101368.91
2022-11-28T02:41:36.341Z,101361.09
2022-11-28T02:44:10.077Z,101357.03
2022-11-28T02:46:44.538Z,101356.41
2022-11-28T02:49:35.689Z,101355.22
2022-11-28T02:52:41.392Z,101345.88
2022-11-28T02:55:09.749Z,101338.50
2022-11-28T02:57:40.297Z,101335.78
2022-11-28T03:00:26.539Z,101337.91
2022-11-28T03:03:03.501Z,101336.97
2022-11-28T03:05:43.498Z,101335.78
2022-11-28T03:08:23.558Z,101332.72
2022-11-28T03:11:13.016Z,101328.59
2022-11-28T03:13:56.624Z,101338.84
2022-11-28T03:16:48.912Z,101329.44
2022-11-28T03:19:42.802Z,101325.06
2022-11-28T03:22:22.594Z,101334.84
2022-11-28T03:24:58.243Z,101328.50
2022-11-28T03:27:45.984Z,101337.88
2022-11-28T03:30:21.878Z,101333.94
2022-11-28T03:32:54.777Z,101335.16
2022-11-28T03:35:28.883Z,101340.22
2022-11-28T03:38:07.335Z,101344.81
2022-11-28T03:40:43.077Z,101329.72
2022-11-28T03:43:16.039Z,101341.25
2022-11-28T03:45:51.830Z,101339.38
2022-11-28T03:48:28.227Z,101341.72
2022-11-28T03:51:14.825Z,101332.28
2022-11-28T03:53:56.694Z,101317.66
2022-11-28T03:56:38.856Z,101328.06
2022-11-28T03:59:22.892Z,101323.91
2022-11-28T04:02:32.719Z,101317.28
2022-11-28T04:05:12.612Z,101320.84
2022-11-28T04:07:47.674Z,101321.41
2022-11-28T04:10:47.831Z,101320.69
2022-11-28T04:13:29.087Z,101316.91
2022-11-28T04:16:05.583Z,101319.22
2022-11-28T04:18:45.435Z,101323.50
2022-11-28T04:21:41.630Z,101321.59
2022-11-28T04:24:18.093Z,101320.03
2022-11-28T04:26:52.303Z,101311.88
2022-11-28T04:29:23.907Z,101313.81
2022-11-28T04:31:56.265Z,101313.22
2022-11-28T04:34:26.225Z,101310.59
2022-11-28T04:36:58.985Z,101306.69
2022-11-28T04:39:30.775Z,101304.50
2022-11-28T04:42:21.833Z,101313.19
2022-11-28T04:44:58.422Z,101295.84
2022-11-28T04:47:26.799Z,101302.84
2022-11-28T04:49:55.282Z,101298.13
2022-11-28T04:52:28.802Z,101301.47
2022-11-28T04:55:08.103Z,101296.03
2022-11-28T04:57:42.629Z,101297.59
2022-11-28T05:00:16.261Z,101309.28
2022-11-28T05:02:47.381Z,101294.66
2022-11-28T05:05:24.649Z,101298.13
2022-11-28T05:07:53.529Z,101300.63
2022-11-28T05:10:21.628Z,101290.16
2022-11-28T05:12:49.470Z,101291.66
2022-11-28T05:15:19.355Z,101282.22
2022-11-28T05:17:47.569Z,101278.06
2022-11-28T05:20:15.627Z,101274.44
2022-11-28T05:22:43.515Z,101272.91
2022-11-28T05:25:11.403Z,101268.19
2022-11-28T05:27:39.212Z,101258.63
2022-11-28T05:30:12.044Z,101265.38
2022-11-28T05:32:39.969Z,101260.16
2022-11-28T05:35:08.127Z,101259.22
2022-11-28T05:37:36.372Z,101272.59
2022-11-28T05:40:05.120Z,101264.91
2022-11-28T05:42:34.771Z,101270.56
2022-11-28T05:45:02.887Z,101272.09
2022-11-28T05:47:33.369Z,101273.09
2022-11-28T05:50:01.429Z,101268.31
2022-11-28T05:52:32.551Z,101265.97
2022-11-28T05:55:01.712Z,101273.75
2022-11-28T05:57:32.202Z,101276.38
2022-11-28T06:00:00.224Z,101276.25
2022-11-28T06:02:28.144Z,101281.91
2022-11-28T06:04:56.169Z,101274.38
2022-11-28T06:07:24.030Z,101272.00
2022-11-28T06:09:51.924Z,101282.75
2022-11-28T06:12:19.873Z,101279.19
2022-11-28T06:14:47.750Z,101279.56
2022-11-28T06:17:15.588Z,101275.91
2022-11-28T06:19:43.452Z,101279.31
2022-11-28T06:22:11.732Z,101274.34
2022-11-28T06:24:39.512Z,101273.28
2022-11-28T06:27:07.349Z,101270.19
2022-11-28T06:29:35.069Z,101274.34
2022-11-28T06:32:03.242Z,101265.59
2022-11-28T06:34:32.477Z,101259.56
2022-11-28T06:37:00.359Z,101253.09
2022-11-28T06:39:28.188Z,101263.09
2022-11-28T06:41:56.002Z,101261.22
2022-11-28T06:44:24.097Z,101251.31
2022-11-28T06:46:51.954Z,101241.84
2022-11-28T06:49:19.705Z,101242.44
2022-11-28T06:51:47.484Z,101239.00
2022-11-28T06:54:15.423Z,101249.53
2022-11-28T06:56:43.364Z,101241.84
2022-11-28T06:59:12.235Z,101235.13
2022-11-28T07:01:40.272Z,101234.63
2022-11-28T07:04:08.061Z,101234.91
2022-11-28T07:06:35.986Z,101223.53
2022-11-28T07:09:03.928Z,101235.94
2022-11-28T07:11:32.653Z,101230.84
2022-11-28T07:14:02.780Z,101231.81
2022-11-28T07:16:33.158Z,101230.97
2022-11-28T07:19:01.407Z,101236.28
2022-11-28T07:21:29.931Z,101221.16
2022-11-28T07:24:00.100Z,101227.06
2022-11-28T07:26:28.070Z,101230.38
2022-11-28T07:28:58.424Z,101231.66
2022-11-28T07:31:31.823Z,101224.81
2022-11-28T07:34:02.598Z,101229.28
2022-11-28T07:36:30.716Z,101234.59
2022-11-28T07:39:00.738Z,101232.72
2022-11-28T07:41:29.987Z,101226.44
2022-11-28T07:44:01.524Z,101224.09
2022-11-28T07:46:31.243Z,101227.97
2022-11-28T07:48:59.982Z,101233.53
2022-11-28T07:51:30.659Z,101239.09
2022-11-28T07:53:58.986Z,101238.03
2022-11-28T07:56:50.226Z,101218.50
2022-11-28T07:59:17.789Z,101208.59
2022-11-28T08:01:45.909Z,101220.25
2022-11-28T08:04:13.796Z,101212.66
2022-11-28T08:06:44.413Z,101211.91
2022-11-28T08:09:12.293Z,101204.31
2022-11-28T08:11:41.262Z,101194.25
2022-11-28T08:14:09.694Z,101190.75
2022-11-28T08:16:41.432Z,101189.91
2022-11-28T08:19:09.290Z,101210.44
2022-11-28T08:21:38.180Z,101206.56
2022-11-28T08:24:08.040Z,101199.97
2022-11-28T08:26:36.738Z,101198.50
2022-11-28T08:29:04.685Z,101193.75
2022-11-28T08:31:36.016Z,101199.53
2022-11-28T08:34:07.520Z,101204.31
2022-11-28T08:36:36.949Z,101200.50
2022-11-28T08:41:57.835Z,101207.00
2022-11-28T08:44:27.365Z,101210.94
2022-11-28T08:46:55.498Z,101203.59
2022-11-28T08:49:23.271Z,101217.25
2022-11-28T08:51:51.116Z,101209.53
2022-11-28T08:54:18.961Z,101210.47
2022-11-28T08:56:48.590Z,101210.38
2022-11-28T08:59:16.590Z,101207.66
2022-11-28T09:01:44.525Z,101211.13
2022-11-28T09:04:12.785Z,101203.03
2022-11-28T09:06:41.513Z,101198.00
2022-11-28T09:09:10.117Z,101189.41
2022-11-28T09:11:38.570Z,101187.34
2022-11-28T09:14:06.694Z,101189.81
2022-11-28T09:16:34.827Z,101189.41
2022-11-28T09:19:02.789Z,101186.03
2022-11-28T09:21:30.631Z,101181.66
2022-11-28T09:23:59.967Z,101184.13
2022-11-28T09:26:27.918Z,101189.69
2022-11-28T09:28:56.499Z,101199.84
2022-11-28T09:31:24.490Z,101196.91
2022-11-28T09:33:53.538Z,101204.91
2022-11-28T09:36:23.852Z,101188.72
2022-11-28T09:38:52.265Z,101193.94
2022-11-28T09:41:29.032Z,101192.63
2022-11-28T09:44:07.578Z,101191.25
2022-11-28T09:46:38.513Z,101191.81
2022-11-28T09:49:40.729Z,101188.56
2022-11-28T09:52:18.222Z,101203.34
2022-11-28T09:55:11.444Z,101201.44
2022-11-28T09:57:45.571Z,101205.53
2022-11-28T10:00:18.955Z,101198.19
2022-11-28T10:02:56.177Z,101199.84
2022-11-28T10:05:42.549Z,101190.25
2022-11-28T10:08:21.532Z,101162.06
2022-11-28T10:11:16.960Z,101175.44
2022-11-28T10:14:17.327Z,101173.13
2022-11-28T10:16:47.987Z,101166.91
2022-11-28T10:19:46.540Z,101174.69
2022-11-28T10:22:13.990Z,101168.69
2022-11-28T10:24:48.342Z,101165.09
2022-11-28T10:27:20.153Z,101178.44
2022-11-28T10:30:18.339Z,101169.16
2022-11-28T10:32:55.844Z,101178.53
2022-11-28T10:35:36.030Z,101174.53
2022-11-28T10:38:11.570Z,101171.00
2022-11-28T10:40:55.815Z,101166.19
2022-11-28T10:44:00.312Z,101166.41
2022-11-28T10:46:43.328Z,101167.91
2022-11-28T10:49:40.888Z,101160.06
2022-11-28T10:52:30.712Z,101149.13
2022-11-28T10:55:09.149Z,101159.00
2022-11-28T10:57:52.943Z,101148.28
2022-11-28T11:00:21.183Z,101139.38
2022-11-28T11:02:55.213Z,101151.09
2022-11-28T11:05:31.676Z,101145.59
2022-11-28T11:08:02.957Z,101147.50
2022-11-28T11:10:39.038Z,101140.78
2022-11-28T11:13:12.721Z,101140.72
2022-11-28T11:15:40.692Z,101131.31
2022-11-28T11:18:26.551Z,101135.94
2022-11-28T11:21:20.216Z,101127.13
2022-11-28T11:23:50.234Z,101122.22
2022-11-28T11:26:26.330Z,101116.78
2022-11-28T11:28:54.817Z,101115.19
2022-11-28T11:31:26.912Z,101115.72
2022-11-28T11:34:15.566Z,101116.28
2022-11-28T11:36:43.582Z,101113.31
2022-11-28T11:39:11.592Z,101112.19
2022-11-28T11:41:43.881Z,101099.69
2022-11-28T11:44:14.663Z,101094.69
2022-11-28T11:46:58.531Z,101091.81
2022-11-28T11:49:39.720Z,101087.28
2022-11-28T11:52:13.263Z,101082.41
2022-11-28T11:54:56.463Z,101078.31
2022-11-28T11:57:51.623Z,101071.75
2022-11-28T12:00:22.695Z,101058.66
2022-11-28T12:02:59.418Z,101053.09
2022-11-28T12:06:06.072Z,101056.06
2022-11-28T12:08:36.663Z,101058.50
2022-11-28T12:11:45.449Z,101056.75
2022-11-28T12:14:35.498Z,101055.22
2022-11-28T12:17:46.911Z,101052.44
2022-11-28T12:20:24.786Z,101041.31
2022-11-28T12:23:02.023Z,101039.16
2022-11-28T12:25:32.860Z,101028.44
2022-11-28T12:28:38.314Z,101029.88
2022-11-28T12:31:32.284Z,101032.34
2022-11-28T12:34:37.674Z,101031.56
2022-11-28T12:38:10.385Z,101027.22
2022-11-28T12:41:08.950Z,101031.59
2022-11-28T12:43:59.817Z,101020.84
2022-11-28T12:46:56.233Z,101017.34
2022-11-28T12:49:49.823Z,101015.47
2022-11-28T12:52:37.930Z,101021.78
2022-11-28T12:55:05.749Z,101001.00
2022-11-28T12:57:58.733Z,101006.47
2022-11-28T13:00:28.212Z,101003.50
2022-11-28T13:03:11.322Z,101000.78
2022-11-28T13:06:02.175Z,100992.28
2022-11-28T13:08:43.299Z,100992.47
2022-11-28T13:11:32.943Z,100991.66
2022-11-28T13:14:12.434Z,100987.84
2022-11-28T13:16:48.218Z,100994.56
2022-11-28T13:19:21.916Z,100993.44
2022-11-28T13:22:23.817Z,100982.03
2022-11-28T13:25:27.420Z,100979.53
2022-11-28T13:28:19.771Z,100975.19
2022-11-28T13:30:56.673Z,100970.53
2022-11-28T13:33:33.242Z,100972.69
2022-11-28T13:36:02.184Z,100959.59
2022-11-28T13:39:11.639Z,100974.06
2022-11-28T13:42:21.338Z,100968.31
2022-11-28T13:44:59.605Z,100962.88
2022-11-28T13:47:29.201Z,100966.22
2022-11-28T13:50:33.581Z,100965.03
2022-11-28T13:53:20.556Z,100966.66
2022-11-28T13:56:03.736Z,100955.13
2022-11-28T13:58:50.566Z,100953.44
2022-11-28T14:01:23.727Z,100956.69
2022-11-28T14:04:01.436Z,100964.88
2022-11-28T14:06:46.173Z,100958.06
2022-11-28T14:09:17.048Z,100961.53
2022-11-28T14:12:18.669Z,100960.47
2022-11-28T14:15:04.123Z,100956.06
2022-11-28T14:18:02.961Z,100953.31
2022-11-28T14:20:57.464Z,100941.06
2022-11-28T14:23:28.206Z,100950.59
2022-11-28T14:25:57.148Z,100952.53
2022-11-28T14:28:29.793Z,100948.94
2022-11-28T14:31:02.657Z,100951.13
2022-11-28T14:33:38.544Z,100951.94
2022-11-28T14:36:30.438Z,100947.81
2022-11-28T14:39:08.258Z,100948.38
2022-11-28T14:42:05.364Z,100947.22
2022-11-28T14:44:53.252Z,100949.41
2022-11-28T14:47:21.776Z,100948.03
2022-11-28T14:50:09.957Z,100960.84
2022-11-28T14:52:40.942Z,100948.78
2022-11-28T14:55:10.433Z,100947.16
2022-11-28T14:57:51.874Z,100945.50
2022-11-28T15:00:32.891Z,100951.50
2022-11-28T15:03:40.002Z,100952.84
2022-11-28T15:11:17.189Z,100961.19
2022-11-28T15:14:12.891Z,100968.00
2022-11-28T15:16:49.618Z,100967.19
2022-11-28T15:19:20.263Z,100974.28
2022-11-28T15:21:53.537Z,100961.63
2022-11-28T15:24:25.773Z,100973.06
2022-11-28T15:26:57.653Z,100976.56
2022-11-28T15:29:29.223Z,100982.03
2022-11-28T15:31:59.711Z,100985.00
2022-11-28T15:34:31.127Z,100987.66
2022-11-28T15:37:05.674Z,100986.56
2022-11-28T15:39:40.648Z,101000.16
2022-11-28T15:42:47.165Z,100987.59
2022-11-28T15:45:35.775Z,100987.84
2022-11-28T15:48:04.941Z,100984.81
2022-11-28T15:50:34.918Z,100985.25
2022-11-28T15:53:17.716Z,100985.47
2022-11-28T15:55:46.164Z,100984.09
2022-11-28T15:58:18.044Z,100985.97
2022-11-28T16:00:53.528Z,100986.28
2022-11-28T16:03:26.468Z,100990.34
2022-11-28T16:05:57.472Z,100982.44
2022-11-28T16:08:30.288Z,100984.03
2022-11-28T16:10:59.687Z,100986.69
2022-11-28T16:13:29.484Z,100983.97
2022-11-28T16:16:00.222Z,100984.53
2022-11-28T16:18:29.412Z,100987.56
2022-11-28T16:21:00.982Z,100993.91
2022-11-28T16:23:33.811Z,100995.25
2022-11-28T16:26:22.360Z,100981.84
2022-11-28T16:29:08.553Z,100980.72
2022-11-28T16:31:36.475Z,100980.41
2022-11-28T16:34:04.405Z,100987.72
2022-11-28T16:36:37.050Z,100975.91
2022-11-28T16:39:16.868Z,100976.72
2022-11-28T16:41:54.998Z,100981.09
2022-11-28T16:44:25.235Z,100975.16
2022-11-28T16:46:58.553Z,100986.25
2022-11-28T16:49:37.273Z,100982.13
2022-11-28T16:52:23.988Z,100978.31
2022-11-28T16:54:53.823Z,100974.47
2022-11-28T16:57:22.516Z,100966.47
2022-11-28T16:59:55.801Z,100979.00
2022-11-28T17:02:27.035Z,100979.72
2022-11-28T17:04:54.919Z,100975.09
2022-11-28T17:07:24.361Z,100974.81
2022-11-28T17:09:52.314Z,100975.09
2022-11-28T17:12:30.301Z,100978.06
2022-11-28T17:14:59.248Z,100981.34
2022-11-28T17:17:28.209Z,100982.44
2022-11-28T17:19:56.121Z,100976.16
2022-11-28T17:22:28.848Z,100967.16
2022-11-28T17:25:00.214Z,100969.38
2022-11-28T17:27:28.699Z,100976.97
2022-11-28T17:29:56.607Z,100976.09
2022-11-28T17:32:25.023Z,100975.91
2022-11-28T17:34:52.845Z,100977.22
2022-11-28T17:37:20.649Z,100972.63
2022-11-28T17:40:07.010Z,100973.09
2022-11-28T17:42:34.823Z,100973.63
2022-11-28T17:45:02.937Z,100973.31
2022-11-28T17:47:31.531Z,100977.44
2022-11-28T17:49:59.438Z,100982.28
2022-11-28T17:52:30.438Z,100979.50
2022-11-28T17:55:06.882Z,100981.56
2022-11-28T17:57:36.380Z,100976.03
2022-11-28T18:00:09.328Z,100973.56
2022-11-28T18:02:44.636Z,100979.25
2022-11-28T18:05:12.498Z,100966.69
2022-11-28T18:07:41.111Z,100975.13
2022-11-28T18:10:12.595Z,100976.19
2022-11-28T18:12:40.514Z,100973.66
2022-11-28T18:15:10.722Z,100969.03
2022-11-28T18:17:39.309Z,100966.22
2022-11-28T18:20:08.372Z,100965.91
2022-11-28T18:22:36.222Z,100974.59
2022-11-28T18:25:05.349Z,100971.78
2022-11-28T18:27:34.410Z,100976.16
2022-11-28T18:30:10.018Z,100975.31
2022-11-28T18:32:40.635Z,100967.16
2022-11-28T18:35:09.694Z,100967.06
2022-11-28T18:37:39.304Z,100966.75
2022-11-28T18:40:09.408Z,100960.41
2022-11-28T18:42:39.160Z,100970.00
2022-11-28T18:45:07.913Z,100961.59
2022-11-28T18:47:36.392Z,100957.94
2022-11-28T18:50:04.609Z,100956.06
2022-11-28T18:52:32.763Z,100951.69
2022-11-28T18:55:01.104Z,100947.47
2022-11-28T18:57:32.953Z,100946.06
2022-11-28T19:00:01.948Z,100945.75
2022-11-28T19:02:30.357Z,100950.78
2022-11-28T19:04:58.447Z,100950.88
2022-11-28T19:07:27.381Z,100954.41
2022-11-28T19:09:55.175Z,100943.50
2022-11-28T19:12:23.102Z,100942.19
2022-11-28T19:14:54.145Z,100941.34
2022-11-28T19:17:26.475Z,100935.59
2022-11-28T19:19:54.309Z,100941.94
2022-11-28T19:22:23.310Z,100942.75
2022-11-28T19:24:51.744Z,100945.00
2022-11-28T19:27:20.814Z,100941.34
2022-11-28T19:29:48.997Z,100936.09
2022-11-28T19:32:18.237Z,100954.72
2022-11-28T19:34:46.216Z,100950.88
2022-11-28T19:37:15.996Z,100944.34
2022-11-28T19:39:44.362Z,100949.78
2022-11-28T19:42:13.185Z,100953.59
2022-11-28T19:44:42.697Z,100940.72
2022-11-28T19:47:10.586Z,100939.38
2022-11-28T19:49:38.809Z,100947.31
2022-11-28T19:52:07.675Z,100951.03
2022-11-28T19:54:35.689Z,100951.28
2022-11-28T19:57:03.706Z,100949.06
2022-11-28T19:59:31.976Z,100954.41
2022-11-28T20:02:00.125Z,100942.38
2022-11-28T20:04:28.143Z,100947.25
2022-11-28T20:06:56.145Z,100946.63
2022-11-28T20:09:23.998Z,100946.06
2022-11-28T20:11:51.950Z,100947.94
2022-11-28T20:14:20.891Z,100946.31
2022-11-28T20:16:48.833Z,100949.28
2022-11-28T20:19:18.505Z,100955.22
2022-11-28T20:21:46.979Z,100950.84
2022-11-28T20:24:16.913Z,100952.41
2022-11-28T20:29:49.661Z,100950.75
2022-11-28T20:33:19.238Z,100950.44
2022-11-28T20:36:12.433Z,100944.25
2022-11-28T20:38:59.085Z,100945.09
2022-11-28T20:45:34.945Z,100950.25
2022-11-28T20:48:13.718Z,100949.78
2022-11-28T20:51:26.922Z,100949.78
2022-11-28T20:54:43.344Z,100947.63
2022-11-28T20:58:00.089Z,100957.84
2022-11-28T21:00:34.155Z,100958.28
2022-11-28T21:03:33.438Z,100947.63
2022-11-28T21:06:22.365Z,100949.88
2022-11-28T21:14:24.699Z,100947.47
2022-11-28T21:18:08.719Z,100944.66
2022-11-28T21:21:10.466Z,100944.22
2022-11-28T21:24:18.729Z,100951.66
2022-11-28T21:28:00.337Z,100942.16
2022-11-28T21:30:46.192Z,100952.28
2022-11-28T21:33:14.010Z,100940.84
2022-11-28T21:35:41.911Z,100941.31
2022-11-28T21:38:10.417Z,100936.88
2022-11-28T21:40:38.529Z,100941.19
2022-11-28T21:43:06.934Z,100939.50
2022-11-28T21:45:35.659Z,100936.22
2022-11-28T21:48:03.834Z,100938.69
2022-11-28T21:50:31.658Z,100935.22
2022-11-28T21:52:59.834Z,100935.75
2022-11-28T21:55:28.384Z,100943.38
2022-11-28T21:57:57.202Z,100935.88
2022-11-28T22:00:46.030Z,100928.00
2022-11-28T22:03:14.441Z,100942.66
2022-11-28T22:05:42.920Z,100937.06
2022-11-28T22:08:11.430Z,100922.47
2022-11-28T22:10:39.267Z,100936.72
2022-11-28T22:13:09.185Z,100933.28
2022-11-28T22:15:50.765Z,100933.28
2022-11-28T22:18:19.007Z,100939.69
2022-11-28T22:20:51.649Z,100933.78
2022-11-28T22:23:20.949Z,100938.72
2022-11-28T22:25:52.677Z,100935.75
2022-11-28T22:28:21.679Z,100931.63
2022-11-28T22:30:49.730Z,100933.78
2022-11-28T22:33:19.448Z,100935.19
2022-11-28T22:35:47.406Z,100935.31
2022-11-28T22:38:17.052Z,100938.63
2022-11-28T22:40:45.032Z,100926.94
2022-11-28T22:43:13.053Z,100924.22
2022-11-28T22:45:40.999Z,100932.47
2022-11-28T22:48:08.837Z,100932.38
2022-11-28T22:50:40.433Z,100922.56
2022-11-28T22:53:08.235Z,100914.13
2022-11-28T22:55:36.503Z,100932.13
2022-11-28T22:58:04.442Z,100921.72
2022-11-28T23:00:32.524Z,100923.03
2022-11-28T23:03:01.173Z,100926.31
2022-11-28T23:05:29.086Z,100914.72
2022-11-28T23:07:56.982Z,100918.78
2022-11-28T23:10:24.909Z,100918.91
2022-11-28T23:12:53.323Z,100918.59
2022-11-28T23:15:21.504Z,100914.69
2022-11-28T23:17:50.213Z,100918.91
2022-11-28T23:20:18.303Z,100914.19
2022-11-28T23:22:46.225Z,100922.34
2022-11-28T23:25:14.078Z,100919.63
2022-11-28T23:27:43.726Z,100909.69
2022-11-28T23:30:12.404Z,100917.28
2022-11-28T23:32:40.225Z,100913.31
2022-11-28T23:35:08.467Z,100904.34
2022-11-28T23:37:40.133Z,100904.09
2022-11-28T23:40:08.736Z,100902.69
2022-11-28T23:42:36.581Z,100899.88
2022-11-28T23:45:04.778Z,100902.69
2022-11-28T23:47:32.683Z,100896.66
2022-11-28T23:50:00.401Z,100901.03
2022-11-28T23:52:28.202Z,100892.06
2022-11-28T23:54:55.994Z,100902.34
2022-11-28T23:57:23.733Z,100891.94
2022-11-28T23:59:51.542Z,100900.53
